createdAt,value
2017-12-03T00:02:25.025Z,22.52
2017-12-03T00:04:53.148Z,19.08
2017-12-03T00:07:21.303Z,13.88
2017-12-03T00:09:49.464Z,22.58
2017-12-03T00:12:17.605Z,27.42
2017-12-03T00:14:45.729Z,19.33
2017-12-03T00:17:13.882Z,22.45
2017-12-03T00:19:42.010Z,20.62
2017-12-03T00:22:10.166Z,21.92
2017-12-03T00:24:38.288Z,21.95
2017-12-03T00:27:06.437Z,25.85
2017-12-03T00:29:34.570Z,21.58
2017-12-03T00:32:02.723Z,25.67
2017-12-03T00:34:30.854Z,18.23
2017-12-03T00:36:59.773Z,25.17
2017-12-03T00:39:27.901Z,21.95
2017-12-03T00:41:56.825Z,23.80
2017-12-03T00:44:24.958Z,24.75
2017-12-03T00:46:53.113Z,23.75
2017-12-03T00:49:21.245Z,24.48
2017-12-03T00:51:49.400Z,27.65
2017-12-03T00:54:17.533Z,23.42
2017-12-03T00:56:45.685Z,20.90
2017-12-03T00:59:13.823Z,25.77
2017-12-03T01:01:41.983Z,18.35
2017-12-03T01:04:10.121Z,24.63
2017-12-03T01:06:38.260Z,21.37
2017-12-03T01:09:06.411Z,25.95
2017-12-03T01:11:35.350Z,24.52
2017-12-03T01:14:03.484Z,26.02
2017-12-03T01:16:31.657Z,21.12
2017-12-03T01:18:59.785Z,28.05
2017-12-03T01:21:28.012Z,24.65
2017-12-03T01:23:56.198Z,24.42
2017-12-03T01:26:24.370Z,26.17
2017-12-03T01:28:52.528Z,19.83
2017-12-03T01:31:20.663Z,20.80
2017-12-03T01:33:48.828Z,25.95
2017-12-03T01:36:16.967Z,26.70
2017-12-03T01:38:45.138Z,26.58
2017-12-03T01:41:13.273Z,23.00
2017-12-03T01:43:41.445Z,24.27
2017-12-03T01:46:09.581Z,29.30
2017-12-03T01:48:37.737Z,21.75
2017-12-03T01:51:05.886Z,25.42
2017-12-03T01:53:34.089Z,25.90
2017-12-03T01:56:02.222Z,28.73
2017-12-03T01:58:30.362Z,30.33
2017-12-03T02:00:58.534Z,28.67
2017-12-03T02:03:26.666Z,24.77
2017-12-03T02:05:54.822Z,24.65
2017-12-03T02:08:22.958Z,32.28
2017-12-03T02:10:51.106Z,13.38
2017-12-03T02:13:19.236Z,20.08
2017-12-03T02:15:48.158Z,25.10
2017-12-03T02:18:16.280Z,27.25
2017-12-03T02:20:44.441Z,24.25
2017-12-03T02:23:12.580Z,23.12
2017-12-03T02:25:40.739Z,26.37
2017-12-03T02:28:08.863Z,26.83
2017-12-03T02:30:37.029Z,24.33
2017-12-03T02:33:05.189Z,26.35
2017-12-03T02:35:33.318Z,26.40
2017-12-03T02:38:01.480Z,27.50
2017-12-03T02:40:30.382Z,25.55
2017-12-03T02:42:58.538Z,25.60
2017-12-03T02:45:26.673Z,23.67
2017-12-03T02:47:54.830Z,29.10
2017-12-03T02:50:22.958Z,25.17
2017-12-03T02:52:51.121Z,27.58
2017-12-03T02:55:19.258Z,27.05
2017-12-03T02:57:47.409Z,26.00
2017-12-03T03:00:15.545Z,26.85
2017-12-03T03:02:43.697Z,28.10
2017-12-03T03:05:11.826Z,25.23
2017-12-03T03:07:39.981Z,32.53
2017-12-03T03:10:08.105Z,27.50
2017-12-03T03:12:36.257Z,21.77
2017-12-03T03:15:04.408Z,30.15
2017-12-03T03:17:33.304Z,33.45
2017-12-03T03:20:01.457Z,28.42
2017-12-03T03:22:30.386Z,33.88
2017-12-03T03:24:58.513Z,31.27
2017-12-03T03:27:26.669Z,33.72
2017-12-03T03:29:54.802Z,34.75
2017-12-03T03:32:22.953Z,31.58
2017-12-03T03:34:51.080Z,30.12
2017-12-03T03:37:19.242Z,34.13
2017-12-03T03:39:47.380Z,35.92
2017-12-03T03:42:15.538Z,33.40
2017-12-03T03:44:43.675Z,35.10
2017-12-03T03:47:11.802Z,28.33
2017-12-03T03:49:40.724Z,35.38
2017-12-03T03:52:08.850Z,28.12
2017-12-03T03:54:37.768Z,24.33
2017-12-03T03:57:05.900Z,34.78
2017-12-03T03:59:34.053Z,35.70
2017-12-03T04:02:02.180Z,35.45
2017-12-03T04:04:30.345Z,32.83
2017-12-03T04:06:58.486Z,33.35
2017-12-03T04:09:26.642Z,38.15
2017-12-03T04:11:54.765Z,33.03
2017-12-03T04:14:23.684Z,30.17
2017-12-03T04:16:51.821Z,34.65
2017-12-03T04:19:19.979Z,34.13
2017-12-03T04:21:48.108Z,32.00
2017-12-03T04:24:16.276Z,32.10
2017-12-03T04:26:44.417Z,30.62
2017-12-03T04:29:12.548Z,31.50
2017-12-03T04:31:40.698Z,29.45
2017-12-03T04:34:08.825Z,31.58
2017-12-03T04:36:36.985Z,33.60
2017-12-03T04:39:05.109Z,33.05
2017-12-03T04:41:33.261Z,32.35
2017-12-03T04:44:01.394Z,32.25
2017-12-03T04:46:29.541Z,36.05
2017-12-03T04:48:57.669Z,33.10
2017-12-03T04:51:25.834Z,35.72
2017-12-03T04:53:53.964Z,36.88
2017-12-03T04:56:22.124Z,32.92
2017-12-03T04:58:50.260Z,23.58
2017-12-03T05:01:18.381Z,31.20
2017-12-03T05:03:46.537Z,37.90
2017-12-03T05:06:14.666Z,33.95
2017-12-03T05:08:42.826Z,38.10
2017-12-03T05:11:10.951Z,27.80
2017-12-03T05:13:39.120Z,34.55
2017-12-03T05:16:07.258Z,34.53
2017-12-03T05:18:35.400Z,39.67
2017-12-03T05:21:03.530Z,32.63
2017-12-03T05:23:31.680Z,41.33
2017-12-03T05:25:59.815Z,39.55
2017-12-03T05:28:27.973Z,42.72
2017-12-03T05:30:56.096Z,37.58
2017-12-03T05:33:24.253Z,30.42
2017-12-03T05:35:52.390Z,31.77
2017-12-03T05:38:20.552Z,28.12
2017-12-03T05:40:49.467Z,44.28
2017-12-03T05:43:17.629Z,32.78
2017-12-03T05:45:45.758Z,43.40
2017-12-03T05:48:13.894Z,37.55
2017-12-03T05:50:42.045Z,35.13
2017-12-03T05:53:10.182Z,36.40
2017-12-03T05:55:38.334Z,31.60
2017-12-03T05:58:06.457Z,39.72
2017-12-03T06:00:34.614Z,44.67
2017-12-03T06:03:02.740Z,32.65
2017-12-03T06:05:30.901Z,42.70
2017-12-03T06:07:59.037Z,38.28
2017-12-03T06:10:27.187Z,31.17
2017-12-03T06:12:55.313Z,41.88
2017-12-03T06:15:23.469Z,41.13
2017-12-03T06:17:51.609Z,41.45
2017-12-03T06:20:19.761Z,39.78
2017-12-03T06:22:47.894Z,39.33
2017-12-03T06:25:16.058Z,43.80
2017-12-03T06:27:44.954Z,39.15
2017-12-03T06:30:13.082Z,37.00
2017-12-03T06:32:41.235Z,38.92
2017-12-03T06:35:09.366Z,43.58
2017-12-03T06:37:37.519Z,38.65
2017-12-03T06:40:05.649Z,38.95
2017-12-03T06:42:33.805Z,42.75
2017-12-03T06:45:01.933Z,39.83
2017-12-03T06:47:30.088Z,41.25
2017-12-03T06:49:58.226Z,42.10
2017-12-03T06:52:26.378Z,39.88
2017-12-03T06:54:55.274Z,41.63
2017-12-03T06:57:23.434Z,48.33
2017-12-03T06:59:52.337Z,42.83
2017-12-03T07:02:20.487Z,39.83
2017-12-03T07:04:48.623Z,40.97
2017-12-03T07:07:16.781Z,37.47
2017-12-03T07:09:44.909Z,39.20
2017-12-03T07:12:13.678Z,39.83
2017-12-03T07:14:41.804Z,22.50
2017-12-03T07:17:09.988Z,33.60
2017-12-03T07:19:38.108Z,45.45
2017-12-03T07:22:06.262Z,40.72
2017-12-03T07:24:34.384Z,34.28
2017-12-03T07:27:03.305Z,37.22
2017-12-03T07:29:31.433Z,40.80
2017-12-03T07:32:00.350Z,36.55
2017-12-03T07:34:28.483Z,32.90
2017-12-03T07:36:56.606Z,34.58
2017-12-03T07:39:24.758Z,37.67
2017-12-03T07:41:52.904Z,33.30
2017-12-03T07:44:21.061Z,28.83
2017-12-03T07:46:49.184Z,35.03
2017-12-03T07:49:17.336Z,34.50
2017-12-03T07:51:45.466Z,36.22
2017-12-03T07:54:13.622Z,31.80
2017-12-03T07:56:41.744Z,33.08
2017-12-03T07:59:09.901Z,34.42
2017-12-03T08:01:38.034Z,31.70
2017-12-03T08:04:06.187Z,30.73
2017-12-03T08:06:34.308Z,37.63
2017-12-03T08:09:02.461Z,28.23
2017-12-03T08:11:30.602Z,34.13
2017-12-03T08:13:58.752Z,31.20
2017-12-03T08:16:26.887Z,41.92
2017-12-03T08:18:55.042Z,33.30
2017-12-03T08:21:23.171Z,34.90
2017-12-03T08:23:51.318Z,27.40
2017-12-03T08:26:19.480Z,27.83
2017-12-03T08:28:47.613Z,35.10
2017-12-03T08:31:16.509Z,38.08
2017-12-03T08:33:44.671Z,44.25
2017-12-03T08:36:13.565Z,33.90
2017-12-03T08:38:41.756Z,23.80
2017-12-03T08:41:09.885Z,31.90
2017-12-03T08:43:38.045Z,30.05
2017-12-03T08:46:06.171Z,26.45
2017-12-03T08:48:34.329Z,21.08
2017-12-03T08:51:02.457Z,19.58
2017-12-03T08:53:30.614Z,27.77
2017-12-03T08:55:58.747Z,25.33
2017-12-03T08:58:26.897Z,24.95
2017-12-03T09:00:55.023Z,24.42
2017-12-03T09:03:23.176Z,26.92
2017-12-03T09:05:51.305Z,25.00
2017-12-03T09:08:19.461Z,27.95
2017-12-03T09:10:47.594Z,22.27
2017-12-03T09:13:16.508Z,23.23
2017-12-03T09:15:44.634Z,22.77
2017-12-03T09:18:12.801Z,24.33
2017-12-03T09:20:40.941Z,25.15
2017-12-03T09:23:09.089Z,25.83
2017-12-03T09:25:37.220Z,19.80
2017-12-03T09:28:05.390Z,19.73
2017-12-03T09:30:33.522Z,24.35
2017-12-03T09:33:01.686Z,12.37
2017-12-03T09:35:29.812Z,22.13
2017-12-03T09:37:57.953Z,21.52
2017-12-03T09:40:26.128Z,16.65
2017-12-03T09:42:54.319Z,17.48
2017-12-03T09:45:22.487Z,22.62
2017-12-03T09:47:50.613Z,18.17
2017-12-03T09:50:18.775Z,16.65
2017-12-03T09:52:46.902Z,20.67
2017-12-03T09:55:15.049Z,19.35
2017-12-03T09:57:43.182Z,18.70
2017-12-03T10:00:11.348Z,20.45
2017-12-03T10:02:39.486Z,16.83
2017-12-03T10:05:07.638Z,15.48
2017-12-03T10:07:35.769Z,19.00
2017-12-03T10:10:03.930Z,18.83
2017-12-03T10:12:32.069Z,16.15
2017-12-03T10:15:00.228Z,16.25
2017-12-03T10:17:29.121Z,17.27
2017-12-03T10:19:57.269Z,15.32
2017-12-03T10:22:25.393Z,15.45
2017-12-03T10:24:53.565Z,18.92
2017-12-03T10:27:21.697Z,14.00
2017-12-03T10:29:49.853Z,14.27
2017-12-03T10:32:17.982Z,16.85
2017-12-03T10:34:46.138Z,18.30
2017-12-03T10:37:14.431Z,13.90
2017-12-03T10:39:42.628Z,15.63
2017-12-03T10:42:10.776Z,11.43
2017-12-03T10:44:39.127Z,14.82
2017-12-03T10:47:07.413Z,15.32
2017-12-03T10:49:35.549Z,14.55
2017-12-03T10:52:03.756Z,13.23
2017-12-03T10:54:32.646Z,13.80
2017-12-03T10:57:00.883Z,14.73
2017-12-03T10:59:29.010Z,13.35
2017-12-03T11:01:57.172Z,20.75
2017-12-03T11:04:25.310Z,17.40
2017-12-03T11:06:53.472Z,10.45
2017-12-03T11:09:22.659Z,11.77
2017-12-03T11:11:50.830Z,11.27
2017-12-03T11:14:18.961Z,9.05
2017-12-03T11:16:47.100Z,10.10
2017-12-03T11:19:15.242Z,9.38
2017-12-03T11:21:43.396Z,12.15
2017-12-03T11:24:11.538Z,8.80
2017-12-03T11:26:39.674Z,8.82
2017-12-03T11:29:07.794Z,9.13
2017-12-03T11:31:35.955Z,7.93
2017-12-03T11:34:04.077Z,10.07
2017-12-03T11:36:32.232Z,6.28
2017-12-03T11:39:00.352Z,8.98
2017-12-03T11:41:28.512Z,9.38
2017-12-03T11:43:56.659Z,9.23
2017-12-03T11:46:24.836Z,8.30
2017-12-03T11:48:52.955Z,7.97
2017-12-03T11:51:21.107Z,7.70
2017-12-03T11:53:49.220Z,6.50
2017-12-03T11:56:18.132Z,5.35
2017-12-03T11:58:46.271Z,5.75
2017-12-03T12:01:14.439Z,7.00
2017-12-03T12:03:42.562Z,7.45
2017-12-03T12:06:10.705Z,7.97
2017-12-03T12:08:38.856Z,6.18
2017-12-03T12:11:06.970Z,7.97
2017-12-03T12:13:35.117Z,6.93
2017-12-03T12:16:03.778Z,6.28
2017-12-03T12:18:31.926Z,7.32
2017-12-03T12:21:00.049Z,6.97
2017-12-03T12:23:28.209Z,7.32
2017-12-03T12:25:56.326Z,7.50
2017-12-03T12:28:24.454Z,6.35
2017-12-03T12:30:52.606Z,6.32
2017-12-03T12:33:21.528Z,6.82
2017-12-03T12:35:49.674Z,5.80
2017-12-03T12:38:17.865Z,6.15
2017-12-03T12:40:45.982Z,6.70
2017-12-03T12:43:14.143Z,7.00
2017-12-03T12:45:42.274Z,6.75
2017-12-03T12:48:10.421Z,5.60
2017-12-03T12:50:38.540Z,5.82
2017-12-03T12:53:06.751Z,6.05
2017-12-03T12:55:34.865Z,5.82
2017-12-03T12:58:03.012Z,5.12
2017-12-03T13:00:31.132Z,4.10
2017-12-03T13:02:59.285Z,6.15
2017-12-03T13:05:27.401Z,5.82
2017-12-03T13:07:55.546Z,5.93
2017-12-03T13:10:23.669Z,5.93
2017-12-03T13:12:51.825Z,6.20
2017-12-03T13:15:20.710Z,6.85
2017-12-03T13:17:48.869Z,5.87
2017-12-03T13:20:16.982Z,5.55
2017-12-03T13:22:45.110Z,5.90
2017-12-03T13:25:13.252Z,6.90
2017-12-03T13:27:41.370Z,6.00
2017-12-03T13:30:09.531Z,9.10
2017-12-03T13:32:37.669Z,5.80
2017-12-03T13:35:05.817Z,5.28
2017-12-03T13:37:33.929Z,5.25
2017-12-03T13:40:02.083Z,5.37
2017-12-03T13:42:30.206Z,6.05
2017-12-03T13:44:58.370Z,6.20
2017-12-03T13:47:26.496Z,5.70
2017-12-03T13:49:54.641Z,5.65
2017-12-03T13:52:22.769Z,6.45
2017-12-03T13:54:50.913Z,4.37
2017-12-03T13:57:19.030Z,7.80
2017-12-03T13:59:47.253Z,5.45
2017-12-03T14:02:15.367Z,7.80
2017-12-03T14:04:43.541Z,5.97
2017-12-03T14:07:11.653Z,7.62
2017-12-03T14:09:39.826Z,6.87
2017-12-03T14:12:07.947Z,6.95
2017-12-03T14:14:36.092Z,7.40
2017-12-03T14:17:04.216Z,6.87
2017-12-03T14:19:32.366Z,7.50
2017-12-03T14:22:00.502Z,8.23
2017-12-03T14:24:28.657Z,8.73
2017-12-03T14:26:57.552Z,8.60
2017-12-03T14:29:25.700Z,8.38
2017-12-03T14:31:53.827Z,9.65
2017-12-03T14:34:21.989Z,9.18
2017-12-03T14:36:50.113Z,11.52
2017-12-03T14:39:18.249Z,11.38
2017-12-03T14:41:46.390Z,9.70
2017-12-03T14:44:15.287Z,9.18
2017-12-03T14:46:43.438Z,10.18
2017-12-03T14:49:11.565Z,10.80
2017-12-03T14:51:39.726Z,10.82
2017-12-03T14:54:07.853Z,11.75
2017-12-03T14:56:36.011Z,10.75
2017-12-03T14:59:04.144Z,11.55
2017-12-03T15:01:32.306Z,14.93
2017-12-03T15:04:01.294Z,14.57
2017-12-03T15:06:29.453Z,13.15
2017-12-03T15:08:57.586Z,13.55
2017-12-03T15:11:25.746Z,12.00
2017-12-03T15:13:53.873Z,13.85
2017-12-03T15:16:22.023Z,14.15
2017-12-03T15:18:50.164Z,13.57
2017-12-03T15:21:18.350Z,14.45
2017-12-03T15:23:46.479Z,17.92
2017-12-03T15:26:14.636Z,18.75
2017-12-03T15:28:42.765Z,15.02
2017-12-03T15:31:10.926Z,13.52
2017-12-03T15:33:39.078Z,17.83
2017-12-03T15:36:07.230Z,19.80
2017-12-03T15:38:35.356Z,15.07
2017-12-03T15:41:03.522Z,19.90
2017-12-03T15:43:31.669Z,20.70
2017-12-03T15:45:59.804Z,21.75
2017-12-03T15:48:27.956Z,19.92
2017-12-03T15:50:56.081Z,21.45
2017-12-03T15:53:25.005Z,39.17
2017-12-03T15:55:53.139Z,20.92
2017-12-03T15:58:21.325Z,27.00
2017-12-03T16:00:49.463Z,30.80
2017-12-03T16:03:17.619Z,25.60
2017-12-03T16:05:45.764Z,26.58
2017-12-03T16:08:13.983Z,18.83
2017-12-03T16:10:42.138Z,23.02
2017-12-03T16:13:10.339Z,30.12
2017-12-03T16:15:38.469Z,22.65
2017-12-03T16:18:06.624Z,31.08
2017-12-03T16:20:34.757Z,24.52
2017-12-03T16:23:02.952Z,30.20
2017-12-03T16:25:31.077Z,23.62
2017-12-03T16:27:59.239Z,30.25
2017-12-03T16:30:27.392Z,26.35
2017-12-03T16:32:55.547Z,24.70
2017-12-03T16:35:23.668Z,27.13
2017-12-03T16:37:51.829Z,28.87
2017-12-03T16:40:19.979Z,27.40
2017-12-03T16:42:48.201Z,27.55
2017-12-03T16:45:16.389Z,28.15
2017-12-03T16:47:44.576Z,37.30
2017-12-03T16:50:12.785Z,33.60
2017-12-03T16:52:40.948Z,25.80
2017-12-03T16:55:09.845Z,41.80
2017-12-03T16:57:38.007Z,36.10
2017-12-03T17:00:06.902Z,34.90
2017-12-03T17:02:35.060Z,38.90
2017-12-03T17:05:04.111Z,43.42
2017-12-03T17:07:32.279Z,43.22
2017-12-03T17:10:00.449Z,33.53
2017-12-03T17:12:28.630Z,38.45
2017-12-03T17:14:56.768Z,43.92
2017-12-03T17:17:24.896Z,37.92
2017-12-03T17:19:53.044Z,43.78
2017-12-03T17:22:21.183Z,38.60
2017-12-03T17:24:50.101Z,27.40
2017-12-03T17:27:18.268Z,38.65
2017-12-03T17:29:46.450Z,37.60
2017-12-03T17:32:14.577Z,44.25
2017-12-03T17:34:42.751Z,45.60
2017-12-03T17:37:10.874Z,43.10
2017-12-03T17:39:39.029Z,56.28
2017-12-03T17:42:07.180Z,46.08
2017-12-03T17:44:35.342Z,60.15
2017-12-03T17:47:03.540Z,46.37
2017-12-03T17:49:31.707Z,53.45
2017-12-03T17:52:14.242Z,62.10
2017-12-03T17:54:42.418Z,65.82
2017-12-03T17:57:10.601Z,51.47
2017-12-03T17:59:38.762Z,68.47
2017-12-03T18:02:06.924Z,59.95
2017-12-03T18:04:35.868Z,55.72
2017-12-03T18:07:04.022Z,65.90
2017-12-03T18:09:32.245Z,70.87
2017-12-03T18:12:00.390Z,72.85
2017-12-03T18:14:28.562Z,63.85
2017-12-03T18:16:56.743Z,63.83
2017-12-03T18:19:25.100Z,55.65
2017-12-03T18:21:54.342Z,62.05
2017-12-03T18:24:23.026Z,80.60
2017-12-03T18:26:52.035Z,65.87
2017-12-03T18:29:20.672Z,64.20
2017-12-03T18:31:49.120Z,70.87
2017-12-03T18:34:18.158Z,71.32
2017-12-03T18:36:46.473Z,66.03
2017-12-03T18:39:14.752Z,66.05
2017-12-03T18:41:44.000Z,68.07
2017-12-03T18:44:12.747Z,61.72
2017-12-03T18:46:41.467Z,69.20
2017-12-03T18:49:09.785Z,62.88
2017-12-03T18:51:38.849Z,68.95
2017-12-03T18:54:08.017Z,79.47
2017-12-03T18:56:37.380Z,65.22
2017-12-03T18:59:06.313Z,70.65
2017-12-03T19:01:34.488Z,82.32
2017-12-03T19:04:03.159Z,74.95
2017-12-03T19:06:31.398Z,75.28
2017-12-03T19:08:59.550Z,66.95
2017-12-03T19:11:27.700Z,61.30
2017-12-03T19:13:55.841Z,76.07
2017-12-03T19:16:24.250Z,84.82
2017-12-03T19:18:52.615Z,80.47
2017-12-03T19:21:20.767Z,84.60
2017-12-03T19:23:48.893Z,69.18
2017-12-03T19:26:17.054Z,72.22
2017-12-03T19:28:45.196Z,72.53
2017-12-03T19:31:13.939Z,64.65
2017-12-03T19:33:42.060Z,72.65
2017-12-03T19:36:10.228Z,73.62
2017-12-03T19:38:39.125Z,69.53
2017-12-03T19:41:07.281Z,66.12
2017-12-03T19:43:36.288Z,62.05
2017-12-03T19:46:05.304Z,72.53
2017-12-03T19:48:33.429Z,57.70
2017-12-03T19:51:01.599Z,61.55
2017-12-03T19:53:29.729Z,55.45
2017-12-03T19:55:57.886Z,59.83
2017-12-03T19:58:26.012Z,59.70
2017-12-03T20:00:54.189Z,60.72
2017-12-03T20:03:22.309Z,69.60
2017-12-03T20:05:50.475Z,61.65
2017-12-03T20:08:18.606Z,61.35
2017-12-03T20:10:46.765Z,66.75
2017-12-03T20:13:14.921Z,63.75
2017-12-03T20:15:43.085Z,78.65
2017-12-03T20:18:11.446Z,71.40
2017-12-03T20:20:39.580Z,63.47
2017-12-03T20:23:07.788Z,60.10
2017-12-03T20:25:35.920Z,64.37
2017-12-03T20:28:04.081Z,55.83
2017-12-03T20:30:32.209Z,52.45
2017-12-03T20:33:00.372Z,58.72
2017-12-03T20:35:28.529Z,54.33
2017-12-03T20:37:56.685Z,62.42
2017-12-03T20:40:24.813Z,58.33
2017-12-03T20:42:52.966Z,47.62
2017-12-03T20:45:21.088Z,47.75
2017-12-03T20:47:49.253Z,45.22
2017-12-03T20:50:17.410Z,46.50
2017-12-03T20:52:45.573Z,37.15
2017-12-03T20:55:13.697Z,44.80
2017-12-03T20:57:41.871Z,34.08
2017-12-03T21:00:09.998Z,29.55
2017-12-03T21:02:38.158Z,28.50
2017-12-03T21:05:06.315Z,34.28
2017-12-03T21:07:34.736Z,28.58
2017-12-03T21:10:02.887Z,27.20
2017-12-03T21:12:31.071Z,29.63
2017-12-03T21:14:59.202Z,23.70
2017-12-03T21:17:27.367Z,33.90
2017-12-03T21:19:55.503Z,22.37
2017-12-03T21:22:23.727Z,20.55
2017-12-03T21:24:51.851Z,22.05
2017-12-03T21:27:19.999Z,17.02
2017-12-03T21:29:48.137Z,16.67
2017-12-03T21:32:16.298Z,19.08
2017-12-03T21:34:44.455Z,18.92
2017-12-03T21:37:12.602Z,17.85
2017-12-03T21:39:40.726Z,10.88
2017-12-03T21:42:08.885Z,17.12
2017-12-03T21:44:37.033Z,12.15
2017-12-03T21:47:05.161Z,17.12
2017-12-03T21:49:33.331Z,11.55
2017-12-03T21:52:01.450Z,10.63
2017-12-03T21:54:29.605Z,11.50
2017-12-03T21:56:58.499Z,9.27
2017-12-03T21:59:26.649Z,12.05
2017-12-03T22:01:54.792Z,14.77
2017-12-03T22:04:22.945Z,12.40
2017-12-03T22:06:51.082Z,12.57
2017-12-03T22:09:19.232Z,6.72
2017-12-03T22:11:47.381Z,8.85
2017-12-03T22:14:15.540Z,15.60
2017-12-03T22:16:43.662Z,10.70
2017-12-03T22:19:11.843Z,8.63
2017-12-03T22:21:39.977Z,10.30
2017-12-03T22:24:08.132Z,14.43
2017-12-03T22:26:36.274Z,6.22
2017-12-03T22:29:04.425Z,10.02
2017-12-03T22:31:32.572Z,9.65
2017-12-03T22:34:00.718Z,8.70
2017-12-03T22:36:28.841Z,10.50
2017-12-03T22:38:56.988Z,6.45
2017-12-03T22:41:25.112Z,8.05
2017-12-03T22:43:54.025Z,10.07
2017-12-03T22:46:22.141Z,8.63
2017-12-03T22:48:50.285Z,7.78
2017-12-03T22:51:18.415Z,11.10
2017-12-03T22:53:46.581Z,11.73
2017-12-03T22:56:14.705Z,15.27
2017-12-03T22:58:42.825Z,11.60
2017-12-03T23:01:10.980Z,17.75
2017-12-03T23:03:39.104Z,10.88
2017-12-03T23:06:07.253Z,14.18
2017-12-03T23:08:35.382Z,14.05
2017-12-03T23:11:03.532Z,15.43
2017-12-03T23:13:31.661Z,14.25
2017-12-03T23:15:59.812Z,12.37
2017-12-03T23:18:27.949Z,9.75
2017-12-03T23:20:56.089Z,7.18
2017-12-03T23:23:24.982Z,5.05
2017-12-03T23:25:53.130Z,5.72
2017-12-03T23:28:21.251Z,8.20
2017-12-03T23:30:49.396Z,11.63
2017-12-03T23:33:17.528Z,7.35
2017-12-03T23:35:45.679Z,7.32
2017-12-03T23:38:13.798Z,16.35
2017-12-03T23:40:41.955Z,5.07
2017-12-03T23:43:10.078Z,7.78
2017-12-03T23:45:38.231Z,5.95
2017-12-03T23:48:06.354Z,8.95
2017-12-03T23:50:34.494Z,7.82
2017-12-03T23:53:03.387Z,9.85
2017-12-03T23:55:31.529Z,12.00
2017-12-03T23:57:59.657Z,12.48
